Ontario, CA (91764)

4:14 AM PDT on September 23, 2014 (GMT -0700)
Pennhill Estates | Change Station
CLOSE
Current Station
Personal Weather Station
Location: Upland, CA
Elevation: 1539 ft
Nearby Weather Stations

Elev 1539 ft 34.13 °N, 117.62 °W | Updated 29 seconds ago

Clear
Clear
62.9 °F
Feels Like 62.9 °F
N
0.0
Wind Variable Wind from WNW
Gusts 0.0 mph

Today
High -- | Low -- °F
--% Chance of Precip.
Yesterday
High -- | Low -- °F
Precip. -- in
6:39 AM 6:45 PM
Waning Crescent, 1% visible
Pressure 29.91 in
Visibility 10.0 miles
Clouds Clear
Dew Point 55 °F
Humidity 76%
Rainfall 0.00 in
Snow Depth 1 in , 0 in , 0 in
UV 0 out of 12
Pollen 6.60 out of 12
Ozone Good
PM2.5 Moderate
Flu Activity Not available.
METAR KONT 231053Z 00000KT 10SM CLR 19/15 A2996 RMK AO2 SLP128 T01890150

More Conditions Fewer Conditions

Pressure 29.91 in
Visibility 10.0 miles
Clouds Clear
Dew Point 55 °F
Humidity 76%
Rainfall 0.00 in
Snow Depth 1 in , 0 in , 0 in
UV 0 out of 12
Pollen 6.60 out of 12
Ozone Good
PM2.5 Moderate
Flu Activity Not available.
METAR KONT 231053Z 00000KT 10SM CLR 19/15 A2996 RMK AO2 SLP128 T01890150

More Conditions Fewer Conditions

10-Day Weather Forecast

Almanac

Astronomy

Sep. 23, 2014 Rise Set
Actual Time 6:39 AM PDT 6:45 PM PDT
Civil Twilight 6:14 AM PDT 7:10 PM PDT
Nautical Twilight 5:45 AM PDT 7:39 PM PDT
Astronomical Twilight 5:15 AM PDT 8:09 PM PDT
Moon 6:08 AM PDT 6:27 PM PDT
Length of Visible Light 12h 56m
Length of Day
12h 06m
Tomorrow will be 2m 6s shorter.
Waning Crescent, 1% of the Moon is Illuminated
Today
Waning Crescent
Sep 24
New
Oct 1
First Quarter
Oct 8
Full
Oct 15
Last Quarter

Today's Extremes

State Highs State Lows

Community

WunderPhotos

Upload Photos

1,755,645 photos uploaded!

Nearby

Air Quality

  Air Quality AQ Index Pollutant
Yesterday Good
PM10
Yesterday Moderate
OZONE
Current Moderate
PM2.5
Current Good
OZONE
Tuesday Moderate
OZONE
Tuesday Good
PM10
Tuesday Good
CO
Tuesday Good
NO2

Snow Depth

Station Depth Elevation
Spratt Creek 1 in 6200 ft
Blue Lakes 0 in 8000 ft
Rubicon #2 0 in 7500 ft
Leavitt Lake 0 in 9400 ft
Crowder Flat 0 in 5100 ft

Earthquake Activity

City Distance Mag. Time & Date
Big Bear Lake, California 36 miles 2.5 7:26 AM PDT
2014-09-22
Borrego Springs, California 93 miles 2.6 7:34 AM PDT
2014-09-21
Inyokern, California 136 miles 3.1 5:33 PM PDT
2014-09-19
Minimum magnitude displayed is 2.5.

Coastal Water Temperatures

Place Temperature
No Stations Reporting

Nearby Weather Stations